createdAt,value
2022-08-31T00:00:56.343Z,3.90
2022-08-31T00:06:02.586Z,3.40
2022-08-31T00:11:04.382Z,6.00
2022-08-31T00:16:10.723Z,5.15
2022-08-31T00:21:12.629Z,5.03
2022-08-31T00:26:15.532Z,6.00
2022-08-31T00:31:17.910Z,7.65
2022-08-31T00:36:23.307Z,8.05
2022-08-31T00:41:28.031Z,8.35
2022-08-31T00:46:32.957Z,9.73
2022-08-31T00:51:40.787Z,8.05
2022-08-31T00:56:43.083Z,8.00
2022-08-31T01:01:45.256Z,8.38
2022-08-31T01:06:49.095Z,7.43
2022-08-31T01:11:51.150Z,8.32
2022-08-31T01:16:55.168Z,7.10
2022-08-31T01:22:04.611Z,7.00
2022-08-31T01:27:07.414Z,7.50
2022-08-31T01:32:09.218Z,8.20
2022-08-31T01:37:12.023Z,8.77
2022-08-31T01:42:15.195Z,10.13
2022-08-31T01:47:17.119Z,9.10
2022-08-31T01:52:18.820Z,10.15
2022-08-31T01:57:21.770Z,10.57
2022-08-31T02:02:50.094Z,10.98
2022-08-31T02:07:52.153Z,11.00
2022-08-31T02:12:54.092Z,11.63
2022-08-31T02:18:04.187Z,10.43
2022-08-31T02:23:06.306Z,12.20
2022-08-31T02:28:09.080Z,12.95
2022-08-31T02:33:11.461Z,12.27
2022-08-31T02:38:13.434Z,12.25
2022-08-31T02:43:17.536Z,12.15
2022-08-31T02:48:28.623Z,13.30
2022-08-31T02:53:30.275Z,13.15
2022-08-31T02:58:31.961Z,13.80
2022-08-31T03:03:35.507Z,11.15
2022-08-31T03:08:37.163Z,11.48
2022-08-31T03:13:39.846Z,10.57
2022-08-31T03:18:41.914Z,11.85
2022-08-31T03:23:44.056Z,11.85
2022-08-31T03:28:46.484Z,11.77
2022-08-31T03:34:26.408Z,11.23
2022-08-31T03:39:28.310Z,11.68
2022-08-31T03:44:30.073Z,11.50
2022-08-31T03:49:31.896Z,12.77
2022-08-31T03:54:43.463Z,13.15
2022-08-31T03:59:45.189Z,13.40
2022-08-31T04:04:54.158Z,12.57
2022-08-31T04:10:15.051Z,12.82
2022-08-31T04:15:39.232Z,14.25
2022-08-31T04:20:59.730Z,13.48
2022-08-31T04:26:01.531Z,14.65
2022-08-31T04:31:06.238Z,13.75
2022-08-31T04:36:10.024Z,14.65
2022-08-31T04:41:13.947Z,15.02
2022-08-31T04:46:17.724Z,15.57
2022-08-31T04:51:23.596Z,15.55
2022-08-31T04:56:28.750Z,14.90
2022-08-31T05:01:42.766Z,14.95
2022-08-31T05:07:20.317Z,14.82
2022-08-31T05:12:22.855Z,14.98
2022-08-31T05:17:24.552Z,15.63
2022-08-31T05:22:29.415Z,15.65
2022-08-31T05:27:32.100Z,15.35
2022-08-31T05:32:35.131Z,14.75
2022-08-31T05:37:40.399Z,15.15
2022-08-31T05:42:43.085Z,17.13
2022-08-31T05:47:44.762Z,16.65
2022-08-31T05:52:46.813Z,17.40
2022-08-31T05:57:48.928Z,16.05
2022-08-31T06:02:53.799Z,14.35
2022-08-31T06:07:56.059Z,12.20
2022-08-31T06:12:58.579Z,11.05
2022-08-31T06:18:00.334Z,9.73
2022-08-31T06:23:02.905Z,7.40
2022-08-31T06:28:16.156Z,7.22
2022-08-31T06:33:18.241Z,5.87
2022-08-31T06:38:32.869Z,5.22
2022-08-31T06:44:06.282Z,6.65
2022-08-31T06:49:30.129Z,6.72
2022-08-31T06:54:32.392Z,7.00
2022-08-31T06:59:53.857Z,5.47
2022-08-31T07:05:08.999Z,5.20
2022-08-31T07:10:12.660Z,5.55
2022-08-31T07:15:15.345Z,5.55
2022-08-31T07:20:17.329Z,5.45
2022-08-31T07:25:20.004Z,6.55
2022-08-31T07:30:24.171Z,5.63
2022-08-31T07:35:25.932Z,6.63
2022-08-31T07:40:50.469Z,6.32
2022-08-31T07:45:53.773Z,5.45
2022-08-31T07:50:59.318Z,5.03
2022-08-31T07:56:17.548Z,4.78
2022-08-31T08:01:20.363Z,4.45
2022-08-31T08:06:22.362Z,4.55
2022-08-31T08:11:45.272Z,4.97
2022-08-31T08:17:03.558Z,5.60
2022-08-31T08:22:11.198Z,6.13
2022-08-31T08:27:32.027Z,6.22
2022-08-31T08:32:45.497Z,5.20
2022-08-31T08:37:58.589Z,5.80
2022-08-31T08:43:03.977Z,5.03
2022-08-31T08:48:06.125Z,4.47
2022-08-31T08:53:11.405Z,3.95
2022-08-31T08:58:19.992Z,5.35
2022-08-31T09:03:36.382Z,4.40
2022-08-31T09:09:24.521Z,4.05
2022-08-31T09:14:48.488Z,4.10
2022-08-31T09:19:51.248Z,4.55
2022-08-31T09:24:53.345Z,3.92
2022-08-31T09:30:32.757Z,4.47
2022-08-31T09:35:37.519Z,4.28
2022-08-31T09:40:41.699Z,4.00
2022-08-31T09:46:05.623Z,4.43
2022-08-31T09:51:07.410Z,4.60
2022-08-31T09:56:10.802Z,4.00
2022-08-31T10:01:17.908Z,4.00
2022-08-31T10:06:40.024Z,4.03
2022-08-31T10:11:45.165Z,4.57
2022-08-31T10:16:53.071Z,3.60
2022-08-31T10:21:59.508Z,4.00
2022-08-31T10:27:15.120Z,4.30
2022-08-31T10:32:38.661Z,3.78
2022-08-31T10:37:48.054Z,3.60
2022-08-31T10:43:14.068Z,3.42
2022-08-31T10:48:18.330Z,3.33
2022-08-31T10:53:40.316Z,3.92
2022-08-31T10:59:02.348Z,3.15
2022-08-31T11:04:22.070Z,3.80
2022-08-31T11:09:29.022Z,4.25
2022-08-31T11:14:51.833Z,4.05
2022-08-31T11:19:59.284Z,3.28
2022-08-31T11:25:09.201Z,3.25
2022-08-31T11:30:29.686Z,3.63
2022-08-31T11:36:06.716Z,2.95
2022-08-31T11:41:09.741Z,3.33
2022-08-31T11:46:23.320Z,3.03
2022-08-31T11:51:57.648Z,2.63
2022-08-31T11:56:59.436Z,2.78
2022-08-31T12:02:19.398Z,3.05
2022-08-31T12:07:31.616Z,3.05
2022-08-31T12:12:48.196Z,2.92
2022-08-31T12:17:55.579Z,2.67
2022-08-31T12:23:30.088Z,3.20
2022-08-31T12:34:05.426Z,3.00
2022-08-31T12:39:28.351Z,3.10
2022-08-31T12:44:36.979Z,2.95
2022-08-31T12:49:39.599Z,3.47
2022-08-31T12:54:59.393Z,3.33
2022-08-31T13:00:13.114Z,3.05
2022-08-31T13:10:34.804Z,3.55
2022-08-31T13:15:43.067Z,3.33
2022-08-31T13:20:45.399Z,3.20
2022-08-31T13:26:15.296Z,2.78
2022-08-31T13:31:26.740Z,3.33
2022-08-31T13:36:31.922Z,2.70
2022-08-31T13:41:37.796Z,2.70
2022-08-31T13:46:44.119Z,2.80
2022-08-31T13:51:46.825Z,2.80
2022-08-31T13:56:48.553Z,2.55
2022-08-31T14:02:26.959Z,2.83
2022-08-31T14:07:35.400Z,2.65
2022-08-31T14:12:48.576Z,2.83
2022-08-31T14:23:18.949Z,3.83
2022-08-31T14:28:21.850Z,3.38
2022-08-31T14:33:23.856Z,3.20
2022-08-31T14:38:25.441Z,2.83
2022-08-31T14:43:27.266Z,3.00
2022-08-31T14:48:28.976Z,2.90
2022-08-31T14:53:30.640Z,3.70
2022-08-31T14:58:32.452Z,3.75
2022-08-31T15:03:34.799Z,3.58
2022-08-31T15:08:38.713Z,3.72
2022-08-31T15:13:40.627Z,3.47
2022-08-31T15:18:42.441Z,3.65
2022-08-31T15:23:44.005Z,3.88
2022-08-31T15:28:45.806Z,3.35
2022-08-31T15:33:47.898Z,3.22
2022-08-31T15:38:50.236Z,2.88
2022-08-31T15:43:55.389Z,3.90
2022-08-31T15:48:57.149Z,3.30
2022-08-31T15:54:20.850Z,2.72
2022-08-31T15:59:22.549Z,3.08
2022-08-31T16:04:24.393Z,2.97
2022-08-31T16:09:27.240Z,3.30
2022-08-31T16:14:29.209Z,3.83
2022-08-31T16:19:35.402Z,2.90
2022-08-31T16:24:38.065Z,3.08
2022-08-31T16:29:41.052Z,3.15
2022-08-31T16:34:42.853Z,3.13
2022-08-31T16:39:45.218Z,2.90
2022-08-31T16:44:48.024Z,2.50
2022-08-31T16:49:50.045Z,2.85
2022-08-31T16:54:52.726Z,2.30
2022-08-31T16:59:56.149Z,2.53
2022-08-31T17:04:57.751Z,2.40
2022-08-31T17:09:59.851Z,2.35
2022-08-31T17:15:02.367Z,2.53
2022-08-31T17:20:05.090Z,2.53
2022-08-31T17:25:07.370Z,2.80
2022-08-31T17:30:09.603Z,2.30
2022-08-31T17:35:11.411Z,2.63
2022-08-31T17:40:13.138Z,2.58
2022-08-31T17:45:14.941Z,2.05
2022-08-31T17:50:16.818Z,2.72
2022-08-31T17:55:18.583Z,2.60
2022-08-31T18:00:20.552Z,3.00
2022-08-31T18:05:22.510Z,3.42
2022-08-31T18:10:24.332Z,2.90
2022-08-31T18:15:26.141Z,3.45
2022-08-31T18:20:27.742Z,3.45
2022-08-31T18:25:35.986Z,2.88
2022-08-31T18:30:39.181Z,2.90
2022-08-31T18:35:46.967Z,2.85
2022-08-31T18:40:49.048Z,2.53
2022-08-31T18:45:51.568Z,2.60
2022-08-31T18:50:54.052Z,2.70
2022-08-31T18:55:55.794Z,3.85
2022-08-31T19:00:58.751Z,3.38
2022-08-31T19:06:05.174Z,3.05
2022-08-31T19:11:08.437Z,2.92
2022-08-31T19:16:20.433Z,3.15
2022-08-31T19:21:28.565Z,3.83
2022-08-31T19:26:37.824Z,2.85
2022-08-31T19:31:41.996Z,3.15
2022-08-31T19:36:45.368Z,3.08
2022-08-31T19:41:51.904Z,2.63
2022-08-31T19:46:55.704Z,2.90
2022-08-31T19:52:00.502Z,2.78
2022-08-31T19:57:02.437Z,3.30
2022-08-31T20:02:05.654Z,2.88
2022-08-31T20:07:08.208Z,2.58
2022-08-31T20:12:11.027Z,3.28
2022-08-31T20:17:12.776Z,3.08
2022-08-31T20:22:14.535Z,2.85
2022-08-31T20:27:16.465Z,2.97
2022-08-31T20:32:20.699Z,3.25
2022-08-31T20:37:22.463Z,3.13
2022-08-31T20:42:24.714Z,2.60
2022-08-31T20:47:26.439Z,2.90
2022-08-31T20:52:31.680Z,3.30
2022-08-31T20:57:35.917Z,2.63
2022-08-31T21:02:38.082Z,2.40
2022-08-31T21:07:40.656Z,2.05
2022-08-31T21:12:42.695Z,2.65
2022-08-31T21:17:44.895Z,3.40
2022-08-31T21:22:47.159Z,2.42
2022-08-31T21:27:48.839Z,2.13
2022-08-31T21:32:50.470Z,2.58
2022-08-31T21:37:52.151Z,2.42
2022-08-31T21:42:53.963Z,2.45
2022-08-31T21:47:55.674Z,2.42
2022-08-31T21:53:00.398Z,2.33
2022-08-31T21:58:02.324Z,2.75
2022-08-31T22:03:03.956Z,2.10
2022-08-31T22:08:05.561Z,2.67
2022-08-31T22:13:08.775Z,2.38
2022-08-31T22:18:58.217Z,2.88
2022-08-31T22:23:33.486Z,2.53
2022-08-31T22:28:35.595Z,2.20
2022-08-31T22:33:38.098Z,2.20
2022-08-31T22:43:46.373Z,2.40
2022-08-31T22:48:48.014Z,2.53
2022-08-31T22:53:50.604Z,2.10
2022-08-31T22:58:54.409Z,2.83
2022-08-31T23:03:58.939Z,3.00
2022-08-31T23:09:02.171Z,3.08
2022-08-31T23:14:07.446Z,2.97
2022-08-31T23:19:15.581Z,2.85
2022-08-31T23:24:29.419Z,2.75
2022-08-31T23:29:33.578Z,2.45
2022-08-31T23:34:35.337Z,2.85
2022-08-31T23:39:41.540Z,2.50
2022-08-31T23:44:44.963Z,2.80
2022-08-31T23:49:47.624Z,2.22
2022-08-31T23:54:52.713Z,2.15
